sensor_id;sensor_type;location;lat;lon;timestamp;P1;durP1;ratioP1;P2;durP2;ratioP2
7685;SDS011;3885;51.474;-2.576;2023-03-01T00:01:01;0.60;;;0.60;;
7685;SDS011;3885;51.474;-2.576;2023-03-01T00:03:29;0.87;;;0.70;;
7685;SDS011;3885;51.474;-2.576;2023-03-01T00:05:57;0.43;;;0.43;;
7685;SDS011;3885;51.474;-2.576;2023-03-01T00:08:25;0.60;;;0.60;;
7685;SDS011;3885;51.474;-2.576;2023-03-01T00:10:59;2.10;;;0.70;;
7685;SDS011;3885;51.474;-2.576;2023-03-01T00:13:27;0.40;;;0.40;;
7685;SDS011;3885;51.474;-2.576;2023-03-01T00:15:54;0.60;;;0.50;;
7685;SDS011;3885;51.474;-2.576;2023-03-01T00:18:23;2.20;;;0.60;;
7685;SDS011;3885;51.474;-2.576;2023-03-01T00:20:50;1.70;;;0.60;;
7685;SDS011;3885;51.474;-2.576;2023-03-01T00:23:17;0.77;;;0.50;;
7685;SDS011;3885;51.474;-2.576;2023-03-01T00:25:44;0.50;;;0.50;;
7685;SDS011;3885;51.474;-2.576;2023-03-01T00:28:12;0.50;;;0.50;;
7685;SDS011;3885;51.474;-2.576;2023-03-01T00:30:39;0.60;;;0.60;;
7685;SDS011;3885;51.474;-2.576;2023-03-01T00:33:06;0.47;;;0.47;;
7685;SDS011;3885;51.474;-2.576;2023-03-01T00:35:34;0.50;;;0.50;;
7685;SDS011;3885;51.474;-2.576;2023-03-01T00:38:02;0.50;;;0.50;;
7685;SDS011;3885;51.474;-2.576;2023-03-01T00:40:31;0.40;;;0.40;;
7685;SDS011;3885;51.474;-2.576;2023-03-01T00:42:58;0.50;;;0.50;;
7685;SDS011;3885;51.474;-2.576;2023-03-01T00:45:25;0.60;;;0.60;;
7685;SDS011;3885;51.474;-2.576;2023-03-01T00:47:53;0.60;;;0.60;;
7685;SDS011;3885;51.474;-2.576;2023-03-01T00:50:20;0.80;;;0.50;;
7685;SDS011;3885;51.474;-2.576;2023-03-01T00:52:51;0.40;;;0.40;;
7685;SDS011;3885;51.474;-2.576;2023-03-01T00:55:18;1.20;;;0.70;;
7685;SDS011;3885;51.474;-2.576;2023-03-01T00:57:45;0.50;;;0.50;;
7685;SDS011;3885;51.474;-2.576;2023-03-01T01:00:13;1.07;;;0.60;;
7685;SDS011;3885;51.474;-2.576;2023-03-01T01:02:40;1.03;;;0.70;;
7685;SDS011;3885;51.474;-2.576;2023-03-01T01:05:07;0.60;;;0.60;;
7685;SDS011;3885;51.474;-2.576;2023-03-01T01:07:35;0.50;;;0.50;;
7685;SDS011;3885;51.474;-2.576;2023-03-01T01:10:04;0.60;;;0.60;;
7685;SDS011;3885;51.474;-2.576;2023-03-01T01:12:32;0.73;;;0.70;;
7685;SDS011;3885;51.474;-2.576;2023-03-01T01:14:59;1.07;;;0.70;;
7685;SDS011;3885;51.474;-2.576;2023-03-01T01:17:26;0.50;;;0.50;;
7685;SDS011;3885;51.474;-2.576;2023-03-01T01:19:53;1.60;;;0.53;;
7685;SDS011;3885;51.474;-2.576;2023-03-01T01:22:20;0.60;;;0.60;;
7685;SDS011;3885;51.474;-2.576;2023-03-01T01:24:47;0.50;;;0.50;;
7685;SDS011;3885;51.474;-2.576;2023-03-01T01:27:16;0.50;;;0.50;;
7685;SDS011;3885;51.474;-2.576;2023-03-01T01:29:43;0.50;;;0.50;;
7685;SDS011;3885;51.474;-2.576;2023-03-01T01:32:10;0.40;;;0.40;;
7685;SDS011;3885;51.474;-2.576;2023-03-01T01:34:37;0.50;;;0.50;;
7685;SDS011;3885;51.474;-2.576;2023-03-01T01:37:05;0.40;;;0.40;;
7685;SDS011;3885;51.474;-2.576;2023-03-01T01:39:33;0.70;;;0.53;;
7685;SDS011;3885;51.474;-2.576;2023-03-01T01:42:00;0.50;;;0.50;;
7685;SDS011;3885;51.474;-2.576;2023-03-01T01:44:29;0.70;;;0.70;;
7685;SDS011;3885;51.474;-2.576;2023-03-01T01:46:56;0.53;;;0.53;;
7685;SDS011;3885;51.474;-2.576;2023-03-01T01:49:27;0.57;;;0.57;;
7685;SDS011;3885;51.474;-2.576;2023-03-01T01:52:00;0.47;;;0.47;;
7685;SDS011;3885;51.474;-2.576;2023-03-01T01:54:30;0.53;;;0.50;;
7685;SDS011;3885;51.474;-2.576;2023-03-01T01:56:59;0.80;;;0.50;;
7685;SDS011;3885;51.474;-2.576;2023-03-01T01:59:28;0.40;;;0.40;;
7685;SDS011;3885;51.474;-2.576;2023-03-01T02:01:57;5.30;;;0.70;;
7685;SDS011;3885;51.474;-2.576;2023-03-01T02:04:27;2.63;;;0.50;;
7685;SDS011;3885;51.474;-2.576;2023-03-01T02:06:55;0.80;;;0.67;;
7685;SDS011;3885;51.474;-2.576;2023-03-01T02:09:24;0.50;;;0.50;;
7685;SDS011;3885;51.474;-2.576;2023-03-01T02:11:51;0.53;;;0.53;;
7685;SDS011;3885;51.474;-2.576;2023-03-01T02:14:18;0.60;;;0.60;;
7685;SDS011;3885;51.474;-2.576;2023-03-01T02:16:47;0.40;;;0.40;;
7685;SDS011;3885;51.474;-2.576;2023-03-01T02:19:17;0.50;;;0.50;;
7685;SDS011;3885;51.474;-2.576;2023-03-01T02:21:47;0.53;;;0.50;;
7685;SDS011;3885;51.474;-2.576;2023-03-01T02:24:24;0.60;;;0.60;;
7685;SDS011;3885;51.474;-2.576;2023-03-01T02:26:55;0.60;;;0.60;;
7685;SDS011;3885;51.474;-2.576;2023-03-01T02:29:25;0.50;;;0.50;;
7685;SDS011;3885;51.474;-2.576;2023-03-01T02:31:54;0.40;;;0.40;;
7685;SDS011;3885;51.474;-2.576;2023-03-01T02:34:24;2.20;;;0.50;;
7685;SDS011;3885;51.474;-2.576;2023-03-01T02:36:55;0.57;;;0.57;;
7685;SDS011;3885;51.474;-2.576;2023-03-01T02:39:25;0.50;;;0.50;;
7685;SDS011;3885;51.474;-2.576;2023-03-01T02:41:55;0.50;;;0.50;;
7685;SDS011;3885;51.474;-2.576;2023-03-01T02:44:25;0.50;;;0.50;;
7685;SDS011;3885;51.474;-2.576;2023-03-01T02:46:52;4.10;;;0.80;;
7685;SDS011;3885;51.474;-2.576;2023-03-01T02:49:23;1.23;;;0.50;;
7685;SDS011;3885;51.474;-2.576;2023-03-01T02:52:04;0.77;;;0.50;;
7685;SDS011;3885;51.474;-2.576;2023-03-01T02:54:33;0.50;;;0.50;;
7685;SDS011;3885;51.474;-2.576;2023-03-01T02:57:06;0.50;;;0.50;;
7685;SDS011;3885;51.474;-2.576;2023-03-01T02:59:35;1.00;;;0.60;;
7685;SDS011;3885;51.474;-2.576;2023-03-01T03:02:05;11.13;;;0.87;;
7685;SDS011;3885;51.474;-2.576;2023-03-01T03:04:32;4.00;;;0.60;;
7685;SDS011;3885;51.474;-2.576;2023-03-01T03:06:59;1.10;;;1.10;;
7685;SDS011;3885;51.474;-2.576;2023-03-01T03:09:26;3.33;;;0.87;;
7685;SDS011;3885;51.474;-2.576;2023-03-01T03:11:54;1.33;;;1.20;;
7685;SDS011;3885;51.474;-2.576;2023-03-01T03:14:20;0.77;;;0.77;;
7685;SDS011;3885;51.474;-2.576;2023-03-01T03:16:50;0.50;;;0.50;;
7685;SDS011;3885;51.474;-2.576;2023-03-01T03:19:17;0.60;;;0.60;;
7685;SDS011;3885;51.474;-2.576;2023-03-01T03:21:44;0.70;;;0.70;;
7685;SDS011;3885;51.474;-2.576;2023-03-01T03:24:12;0.70;;;0.70;;
7685;SDS011;3885;51.474;-2.576;2023-03-01T03:26:39;1.43;;;0.83;;
7685;SDS011;3885;51.474;-2.576;2023-03-01T03:29:06;4.00;;;0.90;;
7685;SDS011;3885;51.474;-2.576;2023-03-01T03:31:33;1.37;;;0.80;;
7685;SDS011;3885;51.474;-2.576;2023-03-01T03:34:02;0.60;;;0.60;;
7685;SDS011;3885;51.474;-2.576;2023-03-01T03:36:28;0.90;;;0.50;;
7685;SDS011;3885;51.474;-2.576;2023-03-01T03:38:56;1.60;;;0.67;;
7685;SDS011;3885;51.474;-2.576;2023-03-01T03:41:23;1.03;;;0.93;;
7685;SDS011;3885;51.474;-2.576;2023-03-01T03:43:50;0.50;;;0.50;;
7685;SDS011;3885;51.474;-2.576;2023-03-01T03:46:17;0.60;;;0.60;;
7685;SDS011;3885;51.474;-2.576;2023-03-01T03:48:45;0.60;;;0.60;;
7685;SDS011;3885;51.474;-2.576;2023-03-01T03:51:14;2.00;;;0.70;;
7685;SDS011;3885;51.474;-2.576;2023-03-01T03:53:42;0.53;;;0.53;;
7685;SDS011;3885;51.474;-2.576;2023-03-01T03:56:10;0.70;;;0.60;;
7685;SDS011;3885;51.474;-2.576;2023-03-01T03:58:37;0.70;;;0.60;;
7685;SDS011;3885;51.474;-2.576;2023-03-01T04:01:05;0.70;;;0.70;;
7685;SDS011;3885;51.474;-2.576;2023-03-01T04:03:32;1.53;;;0.70;;
7685;SDS011;3885;51.474;-2.576;2023-03-01T04:06:00;2.83;;;0.80;;
7685;SDS011;3885;51.474;-2.576;2023-03-01T04:08:30;1.90;;;0.77;;
7685;SDS011;3885;51.474;-2.576;2023-03-01T04:10:58;0.50;;;0.50;;
7685;SDS011;3885;51.474;-2.576;2023-03-01T04:13:46;3.17;;;0.70;;
7685;SDS011;3885;51.474;-2.576;2023-03-01T04:16:13;0.50;;;0.50;;
7685;SDS011;3885;51.474;-2.576;2023-03-01T04:18:40;1.20;;;0.80;;
7685;SDS011;3885;51.474;-2.576;2023-03-01T04:21:07;1.23;;;0.80;;
7685;SDS011;3885;51.474;-2.576;2023-03-01T04:23:37;0.50;;;0.50;;
7685;SDS011;3885;51.474;-2.576;2023-03-01T04:26:05;0.40;;;0.40;;
7685;SDS011;3885;51.474;-2.576;2023-03-01T04:28:33;0.70;;;0.70;;
7685;SDS011;3885;51.474;-2.576;2023-03-01T04:31:02;1.20;;;0.67;;
7685;SDS011;3885;51.474;-2.576;2023-03-01T04:33:37;2.73;;;0.50;;
7685;SDS011;3885;51.474;-2.576;2023-03-01T04:36:06;0.70;;;0.70;;
7685;SDS011;3885;51.474;-2.576;2023-03-01T04:38:36;0.60;;;0.60;;
7685;SDS011;3885;51.474;-2.576;2023-03-01T04:41:04;0.60;;;0.60;;
7685;SDS011;3885;51.474;-2.576;2023-03-01T04:43:31;0.50;;;0.50;;
7685;SDS011;3885;51.474;-2.576;2023-03-01T04:46:02;1.70;;;0.77;;
7685;SDS011;3885;51.474;-2.576;2023-03-01T04:48:31;0.53;;;0.50;;
7685;SDS011;3885;51.474;-2.576;2023-03-01T04:50:58;0.70;;;0.70;;
7685;SDS011;3885;51.474;-2.576;2023-03-01T04:53:25;1.17;;;0.80;;
7685;SDS011;3885;51.474;-2.576;2023-03-01T04:55:55;1.10;;;1.10;;
7685;SDS011;3885;51.474;-2.576;2023-03-01T04:58:22;0.90;;;0.90;;
7685;SDS011;3885;51.474;-2.576;2023-03-01T05:00:50;0.60;;;0.60;;
7685;SDS011;3885;51.474;-2.576;2023-03-01T05:03:17;0.70;;;0.70;;
7685;SDS011;3885;51.474;-2.576;2023-03-01T05:05:46;0.70;;;0.70;;
7685;SDS011;3885;51.474;-2.576;2023-03-01T05:08:13;1.60;;;0.93;;
7685;SDS011;3885;51.474;-2.576;2023-03-01T05:10:43;0.60;;;0.60;;
7685;SDS011;3885;51.474;-2.576;2023-03-01T05:13:14;0.63;;;0.63;;
7685;SDS011;3885;51.474;-2.576;2023-03-01T05:15:46;1.00;;;1.00;;
7685;SDS011;3885;51.474;-2.576;2023-03-01T05:18:14;0.70;;;0.70;;
7685;SDS011;3885;51.474;-2.576;2023-03-01T05:20:41;1.07;;;1.07;;
7685;SDS011;3885;51.474;-2.576;2023-03-01T05:23:09;6.53;;;1.00;;
7685;SDS011;3885;51.474;-2.576;2023-03-01T05:25:36;0.80;;;0.80;;
7685;SDS011;3885;51.474;-2.576;2023-03-01T05:28:05;2.37;;;0.97;;
7685;SDS011;3885;51.474;-2.576;2023-03-01T05:30:34;2.20;;;1.40;;
7685;SDS011;3885;51.474;-2.576;2023-03-01T05:33:01;1.20;;;1.10;;
7685;SDS011;3885;51.474;-2.576;2023-03-01T05:35:28;1.00;;;1.00;;
7685;SDS011;3885;51.474;-2.576;2023-03-01T05:37:57;1.20;;;1.10;;
7685;SDS011;3885;51.474;-2.576;2023-03-01T05:40:24;2.70;;;1.30;;
7685;SDS011;3885;51.474;-2.576;2023-03-01T05:42:52;1.63;;;1.27;;
7685;SDS011;3885;51.474;-2.576;2023-03-01T05:45:20;2.30;;;1.13;;
7685;SDS011;3885;51.474;-2.576;2023-03-01T05:47:50;5.07;;;1.30;;
7685;SDS011;3885;51.474;-2.576;2023-03-01T05:50:18;1.23;;;0.90;;
7685;SDS011;3885;51.474;-2.576;2023-03-01T05:52:46;1.57;;;1.30;;
7685;SDS011;3885;51.474;-2.576;2023-03-01T05:55:14;2.97;;;1.30;;
7685;SDS011;3885;51.474;-2.576;2023-03-01T05:57:41;1.20;;;1.10;;
7685;SDS011;3885;51.474;-2.576;2023-03-01T06:00:08;1.37;;;1.20;;
7685;SDS011;3885;51.474;-2.576;2023-03-01T06:02:36;1.17;;;1.07;;
7685;SDS011;3885;51.474;-2.576;2023-03-01T06:05:06;1.07;;;1.07;;
7685;SDS011;3885;51.474;-2.576;2023-03-01T06:07:33;1.33;;;1.23;;
7685;SDS011;3885;51.474;-2.576;2023-03-01T06:10:01;1.50;;;1.40;;
7685;SDS011;3885;51.474;-2.576;2023-03-01T06:12:30;0.93;;;0.93;;
7685;SDS011;3885;51.474;-2.576;2023-03-01T06:14:57;2.40;;;1.00;;
7685;SDS011;3885;51.474;-2.576;2023-03-01T06:17:25;2.10;;;1.00;;
7685;SDS011;3885;51.474;-2.576;2023-03-01T06:19:52;1.50;;;1.40;;
7685;SDS011;3885;51.474;-2.576;2023-03-01T06:22:20;1.37;;;1.27;;
7685;SDS011;3885;51.474;-2.576;2023-03-01T06:24:47;1.47;;;1.37;;
7685;SDS011;3885;51.474;-2.576;2023-03-01T06:27:14;1.83;;;1.70;;
7685;SDS011;3885;51.474;-2.576;2023-03-01T06:29:42;2.93;;;2.00;;
7685;SDS011;3885;51.474;-2.576;2023-03-01T06:32:09;1.60;;;1.50;;
7685;SDS011;3885;51.474;-2.576;2023-03-01T06:34:36;1.87;;;1.43;;
7685;SDS011;3885;51.474;-2.576;2023-03-01T06:37:03;2.27;;;2.03;;
7685;SDS011;3885;51.474;-2.576;2023-03-01T06:39:32;1.67;;;1.30;;
7685;SDS011;3885;51.474;-2.576;2023-03-01T06:41:59;1.73;;;1.63;;
7685;SDS011;3885;51.474;-2.576;2023-03-01T06:44:26;2.27;;;2.07;;
7685;SDS011;3885;51.474;-2.576;2023-03-01T06:46:53;2.13;;;1.93;;
7685;SDS011;3885;51.474;-2.576;2023-03-01T06:49:20;1.60;;;1.50;;
7685;SDS011;3885;51.474;-2.576;2023-03-01T06:51:47;3.03;;;2.53;;
7685;SDS011;3885;51.474;-2.576;2023-03-01T06:54:14;9.20;;;5.47;;
7685;SDS011;3885;51.474;-2.576;2023-03-01T06:56:44;2.63;;;1.93;;
7685;SDS011;3885;51.474;-2.576;2023-03-01T06:59:13;12.80;;;6.23;;
7685;SDS011;3885;51.474;-2.576;2023-03-01T07:01:40;7.80;;;3.07;;
7685;SDS011;3885;51.474;-2.576;2023-03-01T07:04:07;2.60;;;2.00;;
7685;SDS011;3885;51.474;-2.576;2023-03-01T07:06:34;1.97;;;1.63;;
7685;SDS011;3885;51.474;-2.576;2023-03-01T07:09:01;6.93;;;4.23;;
7685;SDS011;3885;51.474;-2.576;2023-03-01T07:11:29;4.13;;;2.57;;
7685;SDS011;3885;51.474;-2.576;2023-03-01T07:13:57;8.97;;;4.63;;
7685;SDS011;3885;51.474;-2.576;2023-03-01T07:16:25;4.73;;;1.93;;
7685;SDS011;3885;51.474;-2.576;2023-03-01T07:18:52;2.00;;;1.60;;
7685;SDS011;3885;51.474;-2.576;2023-03-01T07:21:19;4.90;;;1.90;;
7685;SDS011;3885;51.474;-2.576;2023-03-01T07:23:46;1.63;;;1.50;;
7685;SDS011;3885;51.474;-2.576;2023-03-01T07:26:14;3.43;;;1.60;;
7685;SDS011;3885;51.474;-2.576;2023-03-01T07:28:41;3.17;;;1.40;;
7685;SDS011;3885;51.474;-2.576;2023-03-01T07:31:09;2.57;;;1.73;;
7685;SDS011;3885;51.474;-2.576;2023-03-01T07:33:36;2.40;;;1.13;;
7685;SDS011;3885;51.474;-2.576;2023-03-01T07:36:03;2.40;;;1.47;;
7685;SDS011;3885;51.474;-2.576;2023-03-01T07:38:31;3.07;;;1.63;;
7685;SDS011;3885;51.474;-2.576;2023-03-01T07:40:59;4.50;;;2.00;;
7685;SDS011;3885;51.474;-2.576;2023-03-01T07:43:26;1.67;;;1.23;;
7685;SDS011;3885;51.474;-2.576;2023-03-01T07:45:54;1.40;;;1.30;;
7685;SDS011;3885;51.474;-2.576;2023-03-01T07:48:22;1.53;;;1.30;;
7685;SDS011;3885;51.474;-2.576;2023-03-01T07:50:50;4.53;;;1.10;;
7685;SDS011;3885;51.474;-2.576;2023-03-01T07:53:17;2.03;;;1.10;;
7685;SDS011;3885;51.474;-2.576;2023-03-01T07:55:44;2.93;;;1.33;;
7685;SDS011;3885;51.474;-2.576;2023-03-01T07:58:11;2.20;;;1.40;;
7685;SDS011;3885;51.474;-2.576;2023-03-01T08:00:38;10.40;;;1.00;;
7685;SDS011;3885;51.474;-2.576;2023-03-01T08:03:05;1.43;;;1.17;;
7685;SDS011;3885;51.474;-2.576;2023-03-01T08:05:33;1.17;;;0.93;;
7685;SDS011;3885;51.474;-2.576;2023-03-01T08:08:01;0.70;;;0.70;;
7685;SDS011;3885;51.474;-2.576;2023-03-01T08:10:28;0.90;;;0.90;;
7685;SDS011;3885;51.474;-2.576;2023-03-01T08:12:54;1.07;;;1.07;;
7685;SDS011;3885;51.474;-2.576;2023-03-01T08:15:21;3.13;;;1.70;;
7685;SDS011;3885;51.474;-2.576;2023-03-01T08:17:49;7.27;;;1.83;;
7685;SDS011;3885;51.474;-2.576;2023-03-01T08:20:16;5.23;;;1.27;;
7685;SDS011;3885;51.474;-2.576;2023-03-01T08:22:45;1.47;;;0.90;;
7685;SDS011;3885;51.474;-2.576;2023-03-01T08:25:12;12.13;;;1.47;;
7685;SDS011;3885;51.474;-2.576;2023-03-01T08:27:39;5.83;;;1.60;;
7685;SDS011;3885;51.474;-2.576;2023-03-01T08:30:06;1.23;;;1.13;;
7685;SDS011;3885;51.474;-2.576;2023-03-01T08:32:37;0.87;;;0.87;;
7685;SDS011;3885;51.474;-2.576;2023-03-01T08:35:05;0.90;;;0.90;;
7685;SDS011;3885;51.474;-2.576;2023-03-01T08:37:32;0.80;;;0.80;;
7685;SDS011;3885;51.474;-2.576;2023-03-01T08:40:01;0.70;;;0.70;;
7685;SDS011;3885;51.474;-2.576;2023-03-01T08:42:32;3.43;;;0.80;;
7685;SDS011;3885;51.474;-2.576;2023-03-01T08:44:59;0.90;;;0.80;;
7685;SDS011;3885;51.474;-2.576;2023-03-01T08:47:27;3.20;;;1.00;;
7685;SDS011;3885;51.474;-2.576;2023-03-01T08:49:54;0.80;;;0.80;;
7685;SDS011;3885;51.474;-2.576;2023-03-01T08:52:21;3.40;;;0.90;;
7685;SDS011;3885;51.474;-2.576;2023-03-01T08:54:49;2.60;;;0.93;;
7685;SDS011;3885;51.474;-2.576;2023-03-01T08:57:18;2.73;;;1.20;;
7685;SDS011;3885;51.474;-2.576;2023-03-01T08:59:45;2.00;;;1.50;;
7685;SDS011;3885;51.474;-2.576;2023-03-01T09:02:12;2.03;;;1.37;;
7685;SDS011;3885;51.474;-2.576;2023-03-01T09:04:41;1.40;;;1.30;;
7685;SDS011;3885;51.474;-2.576;2023-03-01T09:07:08;2.20;;;2.00;;
7685;SDS011;3885;51.474;-2.576;2023-03-01T09:09:35;1.47;;;1.37;;
7685;SDS011;3885;51.474;-2.576;2023-03-01T09:12:02;1.30;;;1.20;;
7685;SDS011;3885;51.474;-2.576;2023-03-01T09:14:31;1.43;;;1.33;;
7685;SDS011;3885;51.474;-2.576;2023-03-01T09:16:58;3.07;;;1.37;;
7685;SDS011;3885;51.474;-2.576;2023-03-01T09:19:28;1.70;;;1.37;;
7685;SDS011;3885;51.474;-2.576;2023-03-01T09:21:55;3.33;;;1.17;;
7685;SDS011;3885;51.474;-2.576;2023-03-01T09:24:24;1.73;;;1.33;;
7685;SDS011;3885;51.474;-2.576;2023-03-01T09:26:53;2.80;;;1.50;;
7685;SDS011;3885;51.474;-2.576;2023-03-01T09:29:20;1.40;;;1.30;;
7685;SDS011;3885;51.474;-2.576;2023-03-01T09:31:49;1.53;;;1.23;;
7685;SDS011;3885;51.474;-2.576;2023-03-01T09:34:16;1.90;;;1.03;;
7685;SDS011;3885;51.474;-2.576;2023-03-01T09:36:48;1.33;;;1.23;;
7685;SDS011;3885;51.474;-2.576;2023-03-01T09:39:15;1.53;;;1.27;;
7685;SDS011;3885;51.474;-2.576;2023-03-01T09:41:44;1.63;;;1.40;;
7685;SDS011;3885;51.474;-2.576;2023-03-01T09:44:20;1.90;;;1.80;;
7685;SDS011;3885;51.474;-2.576;2023-03-01T09:46:59;1.23;;;1.13;;
7685;SDS011;3885;51.474;-2.576;2023-03-01T09:49:27;2.40;;;1.20;;
7685;SDS011;3885;51.474;-2.576;2023-03-01T09:51:57;1.33;;;1.17;;
7685;SDS011;3885;51.474;-2.576;2023-03-01T09:54:27;1.70;;;1.60;;
7685;SDS011;3885;51.474;-2.576;2023-03-01T09:56:57;1.03;;;1.03;;
7685;SDS011;3885;51.474;-2.576;2023-03-01T09:59:50;1.50;;;1.40;;
7685;SDS011;3885;51.474;-2.576;2023-03-01T10:02:32;1.30;;;1.13;;
7685;SDS011;3885;51.474;-2.576;2023-03-01T10:05:09;0.70;;;0.70;;
7685;SDS011;3885;51.474;-2.576;2023-03-01T10:07:44;1.60;;;1.50;;
7685;SDS011;3885;51.474;-2.576;2023-03-01T10:10:21;4.87;;;1.27;;
7685;SDS011;3885;51.474;-2.576;2023-03-01T10:12:53;1.10;;;1.10;;
7685;SDS011;3885;51.474;-2.576;2023-03-01T10:15:22;1.60;;;1.33;;
7685;SDS011;3885;51.474;-2.576;2023-03-01T10:17:56;1.73;;;0.97;;
7685;SDS011;3885;51.474;-2.576;2023-03-01T10:20:25;0.83;;;0.70;;
7685;SDS011;3885;51.474;-2.576;2023-03-01T10:22:56;1.10;;;0.97;;
7685;SDS011;3885;51.474;-2.576;2023-03-01T10:25:34;1.10;;;0.73;;
7685;SDS011;3885;51.474;-2.576;2023-03-01T10:28:11;0.97;;;0.97;;
7685;SDS011;3885;51.474;-2.576;2023-03-01T10:30:42;0.80;;;0.73;;
7685;SDS011;3885;51.474;-2.576;2023-03-01T10:33:14;0.87;;;0.80;;
7685;SDS011;3885;51.474;-2.576;2023-03-01T10:35:43;0.60;;;0.60;;
7685;SDS011;3885;51.474;-2.576;2023-03-01T10:38:11;1.20;;;0.63;;
7685;SDS011;3885;51.474;-2.576;2023-03-01T10:40:50;1.00;;;0.97;;
7685;SDS011;3885;51.474;-2.576;2023-03-01T10:43:18;1.00;;;1.00;;
7685;SDS011;3885;51.474;-2.576;2023-03-01T10:45:46;2.40;;;1.30;;
7685;SDS011;3885;51.474;-2.576;2023-03-01T10:48:15;0.70;;;0.70;;
7685;SDS011;3885;51.474;-2.576;2023-03-01T10:50:45;0.63;;;0.63;;
7685;SDS011;3885;51.474;-2.576;2023-03-01T10:53:20;2.07;;;1.10;;
7685;SDS011;3885;51.474;-2.576;2023-03-01T10:56:00;0.80;;;0.80;;
7685;SDS011;3885;51.474;-2.576;2023-03-01T10:58:30;0.60;;;0.60;;
7685;SDS011;3885;51.474;-2.576;2023-03-01T11:00:58;0.90;;;0.90;;
7685;SDS011;3885;51.474;-2.576;2023-03-01T11:03:28;1.23;;;1.00;;
7685;SDS011;3885;51.474;-2.576;2023-03-01T11:05:59;1.70;;;1.27;;
7685;SDS011;3885;51.474;-2.576;2023-03-01T11:08:33;1.20;;;1.10;;
7685;SDS011;3885;51.474;-2.576;2023-03-01T11:11:05;2.40;;;1.20;;
7685;SDS011;3885;51.474;-2.576;2023-03-01T11:13:52;1.67;;;1.13;;
7685;SDS011;3885;51.474;-2.576;2023-03-01T11:16:25;3.33;;;1.33;;
7685;SDS011;3885;51.474;-2.576;2023-03-01T11:18:59;1.27;;;1.13;;
7685;SDS011;3885;51.474;-2.576;2023-03-01T11:21:40;2.87;;;1.23;;
7685;SDS011;3885;51.474;-2.576;2023-03-01T11:24:11;2.70;;;0.93;;
7685;SDS011;3885;51.474;-2.576;2023-03-01T11:26:39;1.40;;;1.13;;
7685;SDS011;3885;51.474;-2.576;2023-03-01T11:29:12;1.60;;;0.90;;
7685;SDS011;3885;51.474;-2.576;2023-03-01T11:31:44;1.30;;;1.20;;
7685;SDS011;3885;51.474;-2.576;2023-03-01T11:34:14;1.60;;;0.90;;
7685;SDS011;3885;51.474;-2.576;2023-03-01T11:36:46;1.27;;;1.17;;
7685;SDS011;3885;51.474;-2.576;2023-03-01T11:39:21;0.80;;;0.80;;
7685;SDS011;3885;51.474;-2.576;2023-03-01T11:42:00;1.23;;;1.00;;
7685;SDS011;3885;51.474;-2.576;2023-03-01T11:44:33;1.37;;;1.27;;
7685;SDS011;3885;51.474;-2.576;2023-03-01T11:50:13;10.27;;;1.00;;
7685;SDS011;3885;51.474;-2.576;2023-03-01T11:52:57;1.47;;;1.17;;
7685;SDS011;3885;51.474;-2.576;2023-03-01T11:55:44;0.70;;;0.70;;
7685;SDS011;3885;51.474;-2.576;2023-03-01T11:58:25;0.90;;;0.90;;
7685;SDS011;3885;51.474;-2.576;2023-03-01T12:01:07;3.40;;;0.90;;
7685;SDS011;3885;51.474;-2.576;2023-03-01T12:03:44;2.47;;;1.20;;
7685;SDS011;3885;51.474;-2.576;2023-03-01T12:06:32;0.80;;;0.60;;
7685;SDS011;3885;51.474;-2.576;2023-03-01T12:12:02;1.00;;;0.70;;
7685;SDS011;3885;51.474;-2.576;2023-03-01T12:14:47;4.30;;;1.47;;
7685;SDS011;3885;51.474;-2.576;2023-03-01T12:17:25;1.93;;;1.40;;
7685;SDS011;3885;51.474;-2.576;2023-03-01T12:20:14;1.90;;;1.10;;
7685;SDS011;3885;51.474;-2.576;2023-03-01T12:22:52;0.87;;;0.87;;
7685;SDS011;3885;51.474;-2.576;2023-03-01T12:25:43;1.97;;;1.87;;
7685;SDS011;3885;51.474;-2.576;2023-03-01T12:28:17;1.83;;;1.40;;
7685;SDS011;3885;51.474;-2.576;2023-03-01T12:31:00;4.20;;;1.70;;
7685;SDS011;3885;51.474;-2.576;2023-03-01T12:33:45;2.10;;;1.53;;
7685;SDS011;3885;51.474;-2.576;2023-03-01T12:39:24;2.63;;;1.97;;
7685;SDS011;3885;51.474;-2.576;2023-03-01T12:42:02;4.40;;;1.47;;
7685;SDS011;3885;51.474;-2.576;2023-03-01T12:50:17;2.60;;;1.80;;
7685;SDS011;3885;51.474;-2.576;2023-03-01T12:52:47;2.37;;;1.87;;
7685;SDS011;3885;51.474;-2.576;2023-03-01T12:55:25;3.87;;;1.90;;
7685;SDS011;3885;51.474;-2.576;2023-03-01T12:57:58;3.93;;;1.47;;
7685;SDS011;3885;51.474;-2.576;2023-03-01T13:00:31;3.10;;;1.40;;
7685;SDS011;3885;51.474;-2.576;2023-03-01T13:03:06;4.80;;;2.00;;
7685;SDS011;3885;51.474;-2.576;2023-03-01T13:05:46;4.30;;;2.10;;
7685;SDS011;3885;51.474;-2.576;2023-03-01T13:08:23;3.80;;;2.07;;
7685;SDS011;3885;51.474;-2.576;2023-03-01T13:10:57;4.63;;;2.30;;
7685;SDS011;3885;51.474;-2.576;2023-03-01T13:13:27;6.00;;;2.93;;
7685;SDS011;3885;51.474;-2.576;2023-03-01T13:15:55;5.43;;;1.83;;
7685;SDS011;3885;51.474;-2.576;2023-03-01T13:18:32;6.17;;;2.33;;
7685;SDS011;3885;51.474;-2.576;2023-03-01T13:21:02;1.50;;;1.40;;
7685;SDS011;3885;51.474;-2.576;2023-03-01T13:23:31;2.73;;;2.00;;
7685;SDS011;3885;51.474;-2.576;2023-03-01T13:26:12;4.50;;;2.40;;
7685;SDS011;3885;51.474;-2.576;2023-03-01T13:28:44;5.77;;;2.70;;
7685;SDS011;3885;51.474;-2.576;2023-03-01T13:34:44;3.70;;;1.90;;
7685;SDS011;3885;51.474;-2.576;2023-03-01T13:43:27;5.00;;;1.77;;
7685;SDS011;3885;51.474;-2.576;2023-03-01T13:45:56;3.63;;;2.13;;
7685;SDS011;3885;51.474;-2.576;2023-03-01T13:48:25;4.17;;;1.73;;
7685;SDS011;3885;51.474;-2.576;2023-03-01T13:50:54;2.23;;;2.03;;
7685;SDS011;3885;51.474;-2.576;2023-03-01T13:53:26;3.13;;;1.70;;
7685;SDS011;3885;51.474;-2.576;2023-03-01T13:55:58;2.20;;;1.43;;
7685;SDS011;3885;51.474;-2.576;2023-03-01T13:58:29;3.30;;;1.60;;
7685;SDS011;3885;51.474;-2.576;2023-03-01T14:00:58;2.40;;;1.80;;
7685;SDS011;3885;51.474;-2.576;2023-03-01T14:03:27;2.60;;;1.80;;
7685;SDS011;3885;51.474;-2.576;2023-03-01T14:05:59;2.97;;;2.00;;
7685;SDS011;3885;51.474;-2.576;2023-03-01T14:08:31;1.53;;;1.43;;
7685;SDS011;3885;51.474;-2.576;2023-03-01T14:11:16;2.30;;;1.57;;
7685;SDS011;3885;51.474;-2.576;2023-03-01T14:14:21;9.33;;;1.57;;
7685;SDS011;3885;51.474;-2.576;2023-03-01T14:17:07;1.20;;;1.00;;
7685;SDS011;3885;51.474;-2.576;2023-03-01T14:19:45;1.27;;;0.97;;
7685;SDS011;3885;51.474;-2.576;2023-03-01T14:22:16;3.77;;;1.33;;
7685;SDS011;3885;51.474;-2.576;2023-03-01T14:24:48;1.57;;;1.10;;
7685;SDS011;3885;51.474;-2.576;2023-03-01T14:27:16;1.60;;;1.50;;
7685;SDS011;3885;51.474;-2.576;2023-03-01T14:29:53;2.30;;;1.40;;
7685;SDS011;3885;51.474;-2.576;2023-03-01T14:32:22;3.27;;;1.27;;
7685;SDS011;3885;51.474;-2.576;2023-03-01T14:34:51;2.00;;;1.50;;
7685;SDS011;3885;51.474;-2.576;2023-03-01T14:37:19;3.33;;;1.93;;
7685;SDS011;3885;51.474;-2.576;2023-03-01T14:39:48;1.57;;;1.47;;
7685;SDS011;3885;51.474;-2.576;2023-03-01T14:42:15;3.97;;;1.87;;
7685;SDS011;3885;51.474;-2.576;2023-03-01T14:44:43;2.00;;;1.53;;
7685;SDS011;3885;51.474;-2.576;2023-03-01T14:47:15;3.00;;;1.80;;
7685;SDS011;3885;51.474;-2.576;2023-03-01T14:49:47;1.67;;;1.57;;
7685;SDS011;3885;51.474;-2.576;2023-03-01T14:52:20;2.20;;;1.73;;
7685;SDS011;3885;51.474;-2.576;2023-03-01T14:54:48;2.93;;;1.93;;
7685;SDS011;3885;51.474;-2.576;2023-03-01T14:57:17;2.30;;;1.93;;
7685;SDS011;3885;51.474;-2.576;2023-03-01T14:59:48;1.67;;;1.10;;
7685;SDS011;3885;51.474;-2.576;2023-03-01T15:02:18;4.10;;;2.13;;
7685;SDS011;3885;51.474;-2.576;2023-03-01T15:04:46;3.10;;;1.97;;
7685;SDS011;3885;51.474;-2.576;2023-03-01T15:07:16;3.40;;;2.07;;
7685;SDS011;3885;51.474;-2.576;2023-03-01T15:09:43;4.87;;;2.10;;
7685;SDS011;3885;51.474;-2.576;2023-03-01T15:17:49;1.43;;;1.30;;
7685;SDS011;3885;51.474;-2.576;2023-03-01T15:20:22;2.00;;;1.40;;
7685;SDS011;3885;51.474;-2.576;2023-03-01T15:22:50;2.30;;;1.13;;
7685;SDS011;3885;51.474;-2.576;2023-03-01T15:25:19;2.67;;;1.20;;
7685;SDS011;3885;51.474;-2.576;2023-03-01T15:27:48;1.43;;;1.30;;
7685;SDS011;3885;51.474;-2.576;2023-03-01T15:30:17;1.73;;;1.13;;
7685;SDS011;3885;51.474;-2.576;2023-03-01T15:32:46;1.47;;;1.30;;
7685;SDS011;3885;51.474;-2.576;2023-03-01T15:35:33;2.30;;;1.43;;
7685;SDS011;3885;51.474;-2.576;2023-03-01T15:38:02;2.00;;;1.40;;
7685;SDS011;3885;51.474;-2.576;2023-03-01T15:40:30;1.97;;;1.60;;
7685;SDS011;3885;51.474;-2.576;2023-03-01T15:42:57;1.57;;;1.47;;
7685;SDS011;3885;51.474;-2.576;2023-03-01T15:45:26;3.10;;;1.40;;
7685;SDS011;3885;51.474;-2.576;2023-03-01T15:47:55;1.60;;;1.20;;